sensor_id;sensor_type;location;lat;lon;timestamp;P1;durP1;ratioP1;P2;durP2;ratioP2
2001;SDS011;1003;48.002;7.788;2023-09-19T00:00:31;2.27;;;1.47;;
2001;SDS011;1003;48.002;7.788;2023-09-19T00:02:59;1.93;;;1.50;;
2001;SDS011;1003;48.002;7.788;2023-09-19T00:05:27;3.30;;;1.60;;
2001;SDS011;1003;48.002;7.788;2023-09-19T00:07:57;1.60;;;1.50;;
2001;SDS011;1003;48.002;7.788;2023-09-19T00:10:24;3.37;;;1.60;;
2001;SDS011;1003;48.002;7.788;2023-09-19T00:12:52;2.63;;;1.63;;
2001;SDS011;1003;48.002;7.788;2023-09-19T00:15:21;1.90;;;1.33;;
2001;SDS011;1003;48.002;7.788;2023-09-19T00:17:48;1.60;;;1.33;;
2001;SDS011;1003;48.002;7.788;2023-09-19T00:20:17;1.43;;;1.33;;
2001;SDS011;1003;48.002;7.788;2023-09-19T00:22:48;1.90;;;1.60;;
2001;SDS011;1003;48.002;7.788;2023-09-19T00:25:15;1.90;;;1.50;;
2001;SDS011;1003;48.002;7.788;2023-09-19T00:27:43;1.73;;;1.20;;
2001;SDS011;1003;48.002;7.788;2023-09-19T00:30:11;1.67;;;1.30;;
2001;SDS011;1003;48.002;7.788;2023-09-19T00:32:42;1.60;;;1.30;;
2001;SDS011;1003;48.002;7.788;2023-09-19T00:35:09;2.00;;;1.40;;
2001;SDS011;1003;48.002;7.788;2023-09-19T00:37:36;1.30;;;1.10;;
2001;SDS011;1003;48.002;7.788;2023-09-19T00:40:06;1.83;;;1.23;;
2001;SDS011;1003;48.002;7.788;2023-09-19T00:42:37;1.60;;;1.10;;
2001;SDS011;1003;48.002;7.788;2023-09-19T00:45:06;2.33;;;1.27;;
2001;SDS011;1003;48.002;7.788;2023-09-19T00:47:36;1.67;;;1.20;;
2001;SDS011;1003;48.002;7.788;2023-09-19T00:50:04;2.80;;;1.10;;
2001;SDS011;1003;48.002;7.788;2023-09-19T00:52:35;1.63;;;0.90;;
2001;SDS011;1003;48.002;7.788;2023-09-19T00:55:05;1.30;;;1.17;;
2001;SDS011;1003;48.002;7.788;2023-09-19T00:57:35;1.60;;;1.07;;
2001;SDS011;1003;48.002;7.788;2023-09-19T01:00:04;2.17;;;1.00;;
2001;SDS011;1003;48.002;7.788;2023-09-19T01:02:33;2.20;;;1.00;;
2001;SDS011;1003;48.002;7.788;2023-09-19T01:05:02;1.83;;;1.10;;
2001;SDS011;1003;48.002;7.788;2023-09-19T01:07:31;1.43;;;1.03;;
2001;SDS011;1003;48.002;7.788;2023-09-19T01:09:59;1.10;;;0.90;;
2001;SDS011;1003;48.002;7.788;2023-09-19T01:12:33;1.67;;;1.20;;
2001;SDS011;1003;48.002;7.788;2023-09-19T01:15:15;2.37;;;0.80;;
2001;SDS011;1003;48.002;7.788;2023-09-19T01:17:57;1.20;;;0.90;;
2001;SDS011;1003;48.002;7.788;2023-09-19T01:20:36;2.17;;;1.03;;
2001;SDS011;1003;48.002;7.788;2023-09-19T01:23:14;1.70;;;0.93;;
2001;SDS011;1003;48.002;7.788;2023-09-19T01:26:05;1.90;;;1.10;;
2001;SDS011;1003;48.002;7.788;2023-09-19T01:28:58;1.17;;;0.80;;
2001;SDS011;1003;48.002;7.788;2023-09-19T01:31:46;0.80;;;0.80;;
2001;SDS011;1003;48.002;7.788;2023-09-19T01:34:19;1.60;;;0.90;;
2001;SDS011;1003;48.002;7.788;2023-09-19T01:36:46;1.90;;;0.90;;
2001;SDS011;1003;48.002;7.788;2023-09-19T01:39:13;1.13;;;0.83;;
2001;SDS011;1003;48.002;7.788;2023-09-19T01:41:45;3.20;;;0.90;;
2001;SDS011;1003;48.002;7.788;2023-09-19T01:44:27;2.20;;;0.80;;
2001;SDS011;1003;48.002;7.788;2023-09-19T01:47:07;0.73;;;0.73;;
2001;SDS011;1003;48.002;7.788;2023-09-19T01:49:50;0.97;;;0.87;;
2001;SDS011;1003;48.002;7.788;2023-09-19T01:52:31;2.00;;;1.03;;
2001;SDS011;1003;48.002;7.788;2023-09-19T01:55:09;1.03;;;0.60;;
2001;SDS011;1003;48.002;7.788;2023-09-19T01:57:40;1.63;;;1.00;;
2001;SDS011;1003;48.002;7.788;2023-09-19T02:00:18;1.90;;;1.00;;
2001;SDS011;1003;48.002;7.788;2023-09-19T02:02:50;1.07;;;0.80;;
2001;SDS011;1003;48.002;7.788;2023-09-19T02:05:24;2.93;;;1.00;;
2001;SDS011;1003;48.002;7.788;2023-09-19T02:07:52;2.03;;;0.80;;
2001;SDS011;1003;48.002;7.788;2023-09-19T02:10:20;1.27;;;0.80;;
2001;SDS011;1003;48.002;7.788;2023-09-19T02:12:49;1.10;;;0.90;;
2001;SDS011;1003;48.002;7.788;2023-09-19T02:15:17;3.73;;;0.93;;
2001;SDS011;1003;48.002;7.788;2023-09-19T02:17:44;0.60;;;0.60;;
2001;SDS011;1003;48.002;7.788;2023-09-19T02:20:13;0.83;;;0.80;;
2001;SDS011;1003;48.002;7.788;2023-09-19T02:22:42;1.83;;;0.90;;
2001;SDS011;1003;48.002;7.788;2023-09-19T02:25:09;1.77;;;0.73;;
2001;SDS011;1003;48.002;7.788;2023-09-19T02:27:38;1.70;;;0.87;;
2001;SDS011;1003;48.002;7.788;2023-09-19T02:30:06;0.83;;;0.83;;
2001;SDS011;1003;48.002;7.788;2023-09-19T02:32:34;1.17;;;0.90;;
2001;SDS011;1003;48.002;7.788;2023-09-19T02:35:04;1.07;;;0.97;;
2001;SDS011;1003;48.002;7.788;2023-09-19T02:37:37;1.07;;;0.90;;
2001;SDS011;1003;48.002;7.788;2023-09-19T02:40:05;2.20;;;0.83;;
2001;SDS011;1003;48.002;7.788;2023-09-19T02:42:43;1.43;;;1.20;;
2001;SDS011;1003;48.002;7.788;2023-09-19T02:45:14;1.37;;;1.00;;
2001;SDS011;1003;48.002;7.788;2023-09-19T02:47:43;0.90;;;0.90;;
2001;SDS011;1003;48.002;7.788;2023-09-19T02:50:11;1.77;;;0.80;;
2001;SDS011;1003;48.002;7.788;2023-09-19T02:52:42;2.00;;;0.90;;
2001;SDS011;1003;48.002;7.788;2023-09-19T02:55:12;2.37;;;1.10;;
2001;SDS011;1003;48.002;7.788;2023-09-19T02:57:44;3.70;;;0.97;;
2001;SDS011;1003;48.002;7.788;2023-09-19T03:00:13;0.97;;;0.80;;
2001;SDS011;1003;48.002;7.788;2023-09-19T03:02:41;3.30;;;1.03;;
2001;SDS011;1003;48.002;7.788;2023-09-19T03:05:09;2.83;;;1.13;;
2001;SDS011;1003;48.002;7.788;2023-09-19T03:07:37;1.83;;;0.90;;
2001;SDS011;1003;48.002;7.788;2023-09-19T03:10:06;1.23;;;0.87;;
2001;SDS011;1003;48.002;7.788;2023-09-19T03:12:35;1.57;;;1.17;;
2001;SDS011;1003;48.002;7.788;2023-09-19T03:15:03;1.00;;;0.87;;
2001;SDS011;1003;48.002;7.788;2023-09-19T03:17:33;1.40;;;0.80;;
2001;SDS011;1003;48.002;7.788;2023-09-19T03:20:01;1.27;;;0.67;;
2001;SDS011;1003;48.002;7.788;2023-09-19T03:22:29;1.33;;;0.87;;
2001;SDS011;1003;48.002;7.788;2023-09-19T03:24:56;1.20;;;0.90;;
2001;SDS011;1003;48.002;7.788;2023-09-19T03:27:25;1.77;;;1.00;;
2001;SDS011;1003;48.002;7.788;2023-09-19T03:29:52;1.83;;;0.90;;
2001;SDS011;1003;48.002;7.788;2023-09-19T03:32:20;2.47;;;1.00;;
2001;SDS011;1003;48.002;7.788;2023-09-19T03:34:47;1.83;;;0.90;;
2001;SDS011;1003;48.002;7.788;2023-09-19T03:37:14;1.03;;;0.87;;
2001;SDS011;1003;48.002;7.788;2023-09-19T03:39:42;2.00;;;1.40;;
2001;SDS011;1003;48.002;7.788;2023-09-19T03:42:09;2.43;;;0.90;;
2001;SDS011;1003;48.002;7.788;2023-09-19T03:44:38;2.73;;;0.90;;
2001;SDS011;1003;48.002;7.788;2023-09-19T03:47:05;3.10;;;1.20;;
2001;SDS011;1003;48.002;7.788;2023-09-19T03:49:32;2.50;;;0.93;;
2001;SDS011;1003;48.002;7.788;2023-09-19T03:52:00;2.37;;;1.03;;
2001;SDS011;1003;48.002;7.788;2023-09-19T03:54:27;2.13;;;1.00;;
2001;SDS011;1003;48.002;7.788;2023-09-19T03:56:54;2.47;;;1.10;;
2001;SDS011;1003;48.002;7.788;2023-09-19T03:59:21;1.17;;;1.07;;
2001;SDS011;1003;48.002;7.788;2023-09-19T04:01:50;2.97;;;1.13;;
2001;SDS011;1003;48.002;7.788;2023-09-19T04:04:21;2.40;;;1.00;;
2001;SDS011;1003;48.002;7.788;2023-09-19T04:06:49;1.10;;;1.00;;
2001;SDS011;1003;48.002;7.788;2023-09-19T04:09:17;1.97;;;1.10;;
2001;SDS011;1003;48.002;7.788;2023-09-19T04:11:44;2.60;;;1.20;;
2001;SDS011;1003;48.002;7.788;2023-09-19T04:14:11;1.10;;;1.00;;
2001;SDS011;1003;48.002;7.788;2023-09-19T04:16:38;2.17;;;1.30;;
2001;SDS011;1003;48.002;7.788;2023-09-19T04:19:06;2.77;;;1.40;;
2001;SDS011;1003;48.002;7.788;2023-09-19T04:21:33;1.07;;;1.00;;
2001;SDS011;1003;48.002;7.788;2023-09-19T04:24:00;2.37;;;0.97;;
2001;SDS011;1003;48.002;7.788;2023-09-19T04:26:28;2.50;;;1.00;;
2001;SDS011;1003;48.002;7.788;2023-09-19T04:28:55;1.10;;;1.00;;
2001;SDS011;1003;48.002;7.788;2023-09-19T04:31:22;1.70;;;1.10;;
2001;SDS011;1003;48.002;7.788;2023-09-19T04:33:49;2.23;;;1.03;;
2001;SDS011;1003;48.002;7.788;2023-09-19T04:36:17;1.70;;;1.27;;
2001;SDS011;1003;48.002;7.788;2023-09-19T04:38:46;1.13;;;0.97;;
2001;SDS011;1003;48.002;7.788;2023-09-19T04:41:13;1.77;;;1.13;;
2001;SDS011;1003;48.002;7.788;2023-09-19T04:43:40;3.70;;;1.03;;
2001;SDS011;1003;48.002;7.788;2023-09-19T04:46:07;2.10;;;1.07;;
2001;SDS011;1003;48.002;7.788;2023-09-19T04:48:34;1.37;;;0.93;;
2001;SDS011;1003;48.002;7.788;2023-09-19T04:51:02;1.83;;;1.03;;
2001;SDS011;1003;48.002;7.788;2023-09-19T04:53:30;1.53;;;1.10;;
2001;SDS011;1003;48.002;7.788;2023-09-19T04:55:57;1.53;;;1.10;;
2001;SDS011;1003;48.002;7.788;2023-09-19T04:58:24;1.30;;;1.10;;
2001;SDS011;1003;48.002;7.788;2023-09-19T05:00:51;1.70;;;1.10;;
2001;SDS011;1003;48.002;7.788;2023-09-19T05:03:19;1.53;;;1.23;;
2001;SDS011;1003;48.002;7.788;2023-09-19T05:05:47;2.07;;;1.30;;
2001;SDS011;1003;48.002;7.788;2023-09-19T05:08:15;2.00;;;1.03;;
2001;SDS011;1003;48.002;7.788;2023-09-19T05:10:43;1.87;;;1.10;;
2001;SDS011;1003;48.002;7.788;2023-09-19T05:13:10;1.00;;;1.00;;
2001;SDS011;1003;48.002;7.788;2023-09-19T05:15:38;4.10;;;1.40;;
2001;SDS011;1003;48.002;7.788;2023-09-19T05:18:05;1.20;;;1.10;;
2001;SDS011;1003;48.002;7.788;2023-09-19T05:20:32;1.90;;;1.00;;
2001;SDS011;1003;48.002;7.788;2023-09-19T05:23:03;1.87;;;1.20;;
2001;SDS011;1003;48.002;7.788;2023-09-19T05:25:33;1.37;;;1.23;;
2001;SDS011;1003;48.002;7.788;2023-09-19T05:28:05;1.77;;;1.10;;
2001;SDS011;1003;48.002;7.788;2023-09-19T05:30:33;1.63;;;1.20;;
2001;SDS011;1003;48.002;7.788;2023-09-19T05:33:03;1.70;;;1.20;;
2001;SDS011;1003;48.002;7.788;2023-09-19T05:35:30;1.83;;;1.10;;
2001;SDS011;1003;48.002;7.788;2023-09-19T05:37:58;2.77;;;1.37;;
2001;SDS011;1003;48.002;7.788;2023-09-19T05:40:25;1.33;;;1.23;;
2001;SDS011;1003;48.002;7.788;2023-09-19T05:42:53;1.53;;;1.10;;
2001;SDS011;1003;48.002;7.788;2023-09-19T05:45:21;3.30;;;1.10;;
2001;SDS011;1003;48.002;7.788;2023-09-19T05:47:48;2.33;;;1.00;;
2001;SDS011;1003;48.002;7.788;2023-09-19T05:50:16;1.10;;;1.00;;
2001;SDS011;1003;48.002;7.788;2023-09-19T05:52:50;1.17;;;1.07;;
2001;SDS011;1003;48.002;7.788;2023-09-19T05:55:18;2.00;;;1.10;;
2001;SDS011;1003;48.002;7.788;2023-09-19T05:57:49;1.60;;;1.40;;
2001;SDS011;1003;48.002;7.788;2023-09-19T06:00:17;1.27;;;1.10;;
2001;SDS011;1003;48.002;7.788;2023-09-19T06:02:50;2.93;;;1.30;;
2001;SDS011;1003;48.002;7.788;2023-09-19T06:05:18;2.03;;;1.10;;
2001;SDS011;1003;48.002;7.788;2023-09-19T06:07:46;1.23;;;1.10;;
2001;SDS011;1003;48.002;7.788;2023-09-19T06:10:13;2.60;;;1.27;;
2001;SDS011;1003;48.002;7.788;2023-09-19T06:12:40;2.07;;;1.20;;
2001;SDS011;1003;48.002;7.788;2023-09-19T06:15:09;1.27;;;1.17;;
2001;SDS011;1003;48.002;7.788;2023-09-19T06:17:40;1.53;;;1.10;;
2001;SDS011;1003;48.002;7.788;2023-09-19T06:20:10;2.83;;;1.33;;
2001;SDS011;1003;48.002;7.788;2023-09-19T06:22:40;2.47;;;1.20;;
2001;SDS011;1003;48.002;7.788;2023-09-19T06:25:08;1.50;;;1.20;;
2001;SDS011;1003;48.002;7.788;2023-09-19T06:27:37;1.90;;;0.97;;
2001;SDS011;1003;48.002;7.788;2023-09-19T06:30:08;2.80;;;1.10;;
2001;SDS011;1003;48.002;7.788;2023-09-19T06:32:36;1.43;;;1.03;;
2001;SDS011;1003;48.002;7.788;2023-09-19T06:35:04;1.63;;;1.10;;
2001;SDS011;1003;48.002;7.788;2023-09-19T06:37:35;1.87;;;1.37;;
2001;SDS011;1003;48.002;7.788;2023-09-19T06:40:04;1.60;;;1.50;;
2001;SDS011;1003;48.002;7.788;2023-09-19T06:42:35;2.40;;;1.30;;
2001;SDS011;1003;48.002;7.788;2023-09-19T06:45:03;1.13;;;1.03;;
2001;SDS011;1003;48.002;7.788;2023-09-19T06:47:31;1.87;;;1.10;;
2001;SDS011;1003;48.002;7.788;2023-09-19T06:49:58;2.33;;;1.20;;
2001;SDS011;1003;48.002;7.788;2023-09-19T06:52:27;1.80;;;1.50;;
2001;SDS011;1003;48.002;7.788;2023-09-19T06:54:56;3.17;;;1.40;;
2001;SDS011;1003;48.002;7.788;2023-09-19T06:57:23;2.63;;;1.20;;
2001;SDS011;1003;48.002;7.788;2023-09-19T06:59:50;2.67;;;1.50;;
2001;SDS011;1003;48.002;7.788;2023-09-19T07:02:17;2.07;;;1.37;;
2001;SDS011;1003;48.002;7.788;2023-09-19T07:04:47;1.63;;;1.40;;
2001;SDS011;1003;48.002;7.788;2023-09-19T07:07:14;4.93;;;1.27;;
2001;SDS011;1003;48.002;7.788;2023-09-19T07:09:41;2.57;;;1.30;;
2001;SDS011;1003;48.002;7.788;2023-09-19T07:12:10;1.83;;;1.30;;
2001;SDS011;1003;48.002;7.788;2023-09-19T07:14:38;1.20;;;1.00;;
2001;SDS011;1003;48.002;7.788;2023-09-19T07:17:05;3.37;;;1.30;;
2001;SDS011;1003;48.002;7.788;2023-09-19T07:19:33;2.03;;;1.10;;
2001;SDS011;1003;48.002;7.788;2023-09-19T07:22:00;3.90;;;1.10;;
2001;SDS011;1003;48.002;7.788;2023-09-19T07:24:28;2.47;;;1.10;;
2001;SDS011;1003;48.002;7.788;2023-09-19T07:26:56;2.33;;;1.03;;
2001;SDS011;1003;48.002;7.788;2023-09-19T07:29:24;1.73;;;1.13;;
2001;SDS011;1003;48.002;7.788;2023-09-19T07:31:52;1.57;;;1.00;;
2001;SDS011;1003;48.002;7.788;2023-09-19T07:34:19;1.40;;;1.30;;
2001;SDS011;1003;48.002;7.788;2023-09-19T07:36:48;2.20;;;1.10;;
2001;SDS011;1003;48.002;7.788;2023-09-19T07:39:15;1.67;;;1.30;;
2001;SDS011;1003;48.002;7.788;2023-09-19T07:41:43;2.57;;;1.00;;
2001;SDS011;1003;48.002;7.788;2023-09-19T07:44:10;2.10;;;1.30;;
2001;SDS011;1003;48.002;7.788;2023-09-19T07:46:38;3.90;;;1.10;;
2001;SDS011;1003;48.002;7.788;2023-09-19T07:49:06;1.87;;;1.00;;
2001;SDS011;1003;48.002;7.788;2023-09-19T07:51:33;1.23;;;1.13;;
2001;SDS011;1003;48.002;7.788;2023-09-19T07:54:00;3.00;;;1.00;;
2001;SDS011;1003;48.002;7.788;2023-09-19T07:56:27;1.60;;;1.07;;
2001;SDS011;1003;48.002;7.788;2023-09-19T07:58:54;1.30;;;1.00;;
2001;SDS011;1003;48.002;7.788;2023-09-19T08:01:24;1.73;;;1.10;;
2001;SDS011;1003;48.002;7.788;2023-09-19T08:03:53;1.13;;;0.93;;
2001;SDS011;1003;48.002;7.788;2023-09-19T08:06:20;1.10;;;1.00;;
2001;SDS011;1003;48.002;7.788;2023-09-19T08:08:50;2.10;;;1.00;;
2001;SDS011;1003;48.002;7.788;2023-09-19T08:11:20;2.37;;;1.13;;
2001;SDS011;1003;48.002;7.788;2023-09-19T08:13:49;2.03;;;1.03;;
2001;SDS011;1003;48.002;7.788;2023-09-19T08:16:17;2.50;;;1.20;;
2001;SDS011;1003;48.002;7.788;2023-09-19T08:18:47;1.07;;;0.97;;
2001;SDS011;1003;48.002;7.788;2023-09-19T08:21:19;1.90;;;1.10;;
2001;SDS011;1003;48.002;7.788;2023-09-19T08:23:46;2.33;;;1.07;;
2001;SDS011;1003;48.002;7.788;2023-09-19T08:26:13;3.77;;;1.17;;
2001;SDS011;1003;48.002;7.788;2023-09-19T08:28:42;1.90;;;1.10;;
2001;SDS011;1003;48.002;7.788;2023-09-19T08:31:09;2.50;;;1.13;;
2001;SDS011;1003;48.002;7.788;2023-09-19T08:33:37;1.67;;;1.00;;
2001;SDS011;1003;48.002;7.788;2023-09-19T08:36:05;1.60;;;1.20;;
2001;SDS011;1003;48.002;7.788;2023-09-19T08:38:36;1.70;;;1.20;;
2001;SDS011;1003;48.002;7.788;2023-09-19T08:41:05;3.00;;;1.50;;
2001;SDS011;1003;48.002;7.788;2023-09-19T08:43:33;3.43;;;1.40;;
2001;SDS011;1003;48.002;7.788;2023-09-19T08:46:03;2.90;;;1.23;;
2001;SDS011;1003;48.002;7.788;2023-09-19T08:48:38;2.17;;;1.20;;
2001;SDS011;1003;48.002;7.788;2023-09-19T08:51:17;1.77;;;1.27;;
2001;SDS011;1003;48.002;7.788;2023-09-19T08:53:54;2.00;;;1.13;;
2001;SDS011;1003;48.002;7.788;2023-09-19T08:56:31;2.10;;;1.23;;
2001;SDS011;1003;48.002;7.788;2023-09-19T08:59:00;1.90;;;1.20;;
2001;SDS011;1003;48.002;7.788;2023-09-19T09:01:31;2.43;;;1.50;;
2001;SDS011;1003;48.002;7.788;2023-09-19T09:03:59;1.57;;;1.30;;
2001;SDS011;1003;48.002;7.788;2023-09-19T09:06:28;1.90;;;1.20;;
2001;SDS011;1003;48.002;7.788;2023-09-19T09:08:59;2.33;;;1.40;;
2001;SDS011;1003;48.002;7.788;2023-09-19T09:11:26;2.27;;;1.23;;
2001;SDS011;1003;48.002;7.788;2023-09-19T09:13:55;1.87;;;1.30;;
2001;SDS011;1003;48.002;7.788;2023-09-19T09:16:22;4.27;;;1.53;;
2001;SDS011;1003;48.002;7.788;2023-09-19T09:18:51;4.03;;;1.33;;
2001;SDS011;1003;48.002;7.788;2023-09-19T09:21:19;3.13;;;1.47;;
2001;SDS011;1003;48.002;7.788;2023-09-19T09:23:46;2.07;;;1.23;;
2001;SDS011;1003;48.002;7.788;2023-09-19T09:26:16;1.80;;;1.30;;
2001;SDS011;1003;48.002;7.788;2023-09-19T09:28:44;2.00;;;1.20;;
2001;SDS011;1003;48.002;7.788;2023-09-19T09:31:21;2.50;;;1.10;;
2001;SDS011;1003;48.002;7.788;2023-09-19T09:33:52;1.50;;;1.20;;
2001;SDS011;1003;48.002;7.788;2023-09-19T09:36:32;1.90;;;1.20;;
2001;SDS011;1003;48.002;7.788;2023-09-19T09:39:01;1.17;;;0.90;;
2001;SDS011;1003;48.002;7.788;2023-09-19T09:41:42;1.20;;;1.07;;
2001;SDS011;1003;48.002;7.788;2023-09-19T09:44:14;1.30;;;1.20;;
2001;SDS011;1003;48.002;7.788;2023-09-19T09:46:43;1.60;;;1.00;;
2001;SDS011;1003;48.002;7.788;2023-09-19T09:49:52;2.03;;;1.10;;
2001;SDS011;1003;48.002;7.788;2023-09-19T09:52:33;2.47;;;1.40;;
2001;SDS011;1003;48.002;7.788;2023-09-19T09:55:11;2.93;;;1.10;;
2001;SDS011;1003;48.002;7.788;2023-09-19T09:57:40;1.40;;;1.20;;
2001;SDS011;1003;48.002;7.788;2023-09-19T10:00:09;3.13;;;1.07;;
2001;SDS011;1003;48.002;7.788;2023-09-19T10:02:45;1.33;;;1.03;;
2001;SDS011;1003;48.002;7.788;2023-09-19T10:05:12;2.63;;;1.10;;
2001;SDS011;1003;48.002;7.788;2023-09-19T10:07:55;2.93;;;1.40;;
2001;SDS011;1003;48.002;7.788;2023-09-19T10:10:30;1.20;;;1.10;;
2001;SDS011;1003;48.002;7.788;2023-09-19T10:13:06;1.53;;;1.10;;
2001;SDS011;1003;48.002;7.788;2023-09-19T10:15:37;1.30;;;1.20;;
2001;SDS011;1003;48.002;7.788;2023-09-19T10:18:07;1.70;;;1.40;;
2001;SDS011;1003;48.002;7.788;2023-09-19T10:20:42;1.97;;;1.20;;
2001;SDS011;1003;48.002;7.788;2023-09-19T10:23:11;2.33;;;1.10;;
2001;SDS011;1003;48.002;7.788;2023-09-19T10:25:43;2.40;;;1.30;;
2001;SDS011;1003;48.002;7.788;2023-09-19T10:28:13;2.47;;;1.17;;
2001;SDS011;1003;48.002;7.788;2023-09-19T10:30:47;1.73;;;1.27;;
2001;SDS011;1003;48.002;7.788;2023-09-19T10:33:16;1.43;;;1.10;;
2001;SDS011;1003;48.002;7.788;2023-09-19T10:35:46;1.63;;;1.20;;
2001;SDS011;1003;48.002;7.788;2023-09-19T10:38:17;4.47;;;1.53;;
2001;SDS011;1003;48.002;7.788;2023-09-19T10:40:48;2.87;;;1.30;;
2001;SDS011;1003;48.002;7.788;2023-09-19T10:43:18;1.17;;;1.07;;
2001;SDS011;1003;48.002;7.788;2023-09-19T10:45:47;2.47;;;1.23;;
2001;SDS011;1003;48.002;7.788;2023-09-19T10:48:17;2.37;;;1.20;;
2001;SDS011;1003;48.002;7.788;2023-09-19T10:50:50;2.63;;;1.33;;
2001;SDS011;1003;48.002;7.788;2023-09-19T10:53:24;2.60;;;1.37;;
2001;SDS011;1003;48.002;7.788;2023-09-19T10:55:57;3.13;;;1.70;;
2001;SDS011;1003;48.002;7.788;2023-09-19T10:58:36;1.53;;;1.40;;
2001;SDS011;1003;48.002;7.788;2023-09-19T11:01:05;2.77;;;1.20;;
2001;SDS011;1003;48.002;7.788;2023-09-19T11:03:37;2.13;;;1.30;;
2001;SDS011;1003;48.002;7.788;2023-09-19T11:06:09;2.50;;;1.30;;
2001;SDS011;1003;48.002;7.788;2023-09-19T11:08:56;1.50;;;1.30;;
2001;SDS011;1003;48.002;7.788;2023-09-19T11:11:45;1.73;;;1.30;;
2001;SDS011;1003;48.002;7.788;2023-09-19T11:14:29;1.63;;;1.43;;
2001;SDS011;1003;48.002;7.788;2023-09-19T11:20:18;1.93;;;1.33;;
2001;SDS011;1003;48.002;7.788;2023-09-19T11:23:20;2.93;;;1.50;;
2001;SDS011;1003;48.002;7.788;2023-09-19T11:25:48;1.97;;;1.40;;
2001;SDS011;1003;48.002;7.788;2023-09-19T11:28:30;1.90;;;1.30;;
2001;SDS011;1003;48.002;7.788;2023-09-19T11:31:40;1.70;;;1.00;;
2001;SDS011;1003;48.002;7.788;2023-09-19T11:40:36;2.13;;;1.30;;
2001;SDS011;1003;48.002;7.788;2023-09-19T11:46:07;2.97;;;1.30;;
2001;SDS011;1003;48.002;7.788;2023-09-19T11:48:36;2.43;;;1.40;;
2001;SDS011;1003;48.002;7.788;2023-09-19T11:51:15;1.30;;;1.20;;
2001;SDS011;1003;48.002;7.788;2023-09-19T11:53:47;1.33;;;1.00;;
2001;SDS011;1003;48.002;7.788;2023-09-19T11:56:16;1.30;;;1.20;;
2001;SDS011;1003;48.002;7.788;2023-09-19T11:58:48;2.33;;;1.17;;
2001;SDS011;1003;48.002;7.788;2023-09-19T12:01:21;2.07;;;1.20;;
2001;SDS011;1003;48.002;7.788;2023-09-19T12:03:54;1.60;;;1.30;;
2001;SDS011;1003;48.002;7.788;2023-09-19T12:06:25;1.83;;;1.20;;
2001;SDS011;1003;48.002;7.788;2023-09-19T12:08:54;1.27;;;1.17;;
2001;SDS011;1003;48.002;7.788;2023-09-19T12:11:22;1.33;;;1.20;;
2001;SDS011;1003;48.002;7.788;2023-09-19T12:13:53;1.40;;;1.30;;
2001;SDS011;1003;48.002;7.788;2023-09-19T12:16:25;1.57;;;1.43;;
2001;SDS011;1003;48.002;7.788;2023-09-19T12:18:55;2.30;;;1.60;;
2001;SDS011;1003;48.002;7.788;2023-09-19T12:21:24;2.13;;;1.50;;
2001;SDS011;1003;48.002;7.788;2023-09-19T12:23:59;1.70;;;1.40;;
2001;SDS011;1003;48.002;7.788;2023-09-19T12:26:41;3.93;;;1.63;;
2001;SDS011;1003;48.002;7.788;2023-09-19T12:29:13;1.80;;;1.30;;
2001;SDS011;1003;48.002;7.788;2023-09-19T12:31:52;2.80;;;1.40;;
2001;SDS011;1003;48.002;7.788;2023-09-19T12:34:24;1.73;;;1.17;;
2001;SDS011;1003;48.002;7.788;2023-09-19T12:37:03;1.30;;;1.20;;
2001;SDS011;1003;48.002;7.788;2023-09-19T12:39:38;1.10;;;1.07;;
2001;SDS011;1003;48.002;7.788;2023-09-19T12:42:08;3.03;;;1.37;;
2001;SDS011;1003;48.002;7.788;2023-09-19T12:44:40;1.87;;;1.67;;
2001;SDS011;1003;48.002;7.788;2023-09-19T12:47:11;1.50;;;1.40;;
2001;SDS011;1003;48.002;7.788;2023-09-19T12:52:43;1.70;;;1.30;;
2001;SDS011;1003;48.002;7.788;2023-09-19T12:55:20;1.40;;;1.27;;
2001;SDS011;1003;48.002;7.788;2023-09-19T12:57:59;1.40;;;1.30;;
2001;SDS011;1003;48.002;7.788;2023-09-19T13:00:45;2.03;;;1.50;;
2001;SDS011;1003;48.002;7.788;2023-09-19T13:03:15;1.70;;;1.53;;
2001;SDS011;1003;48.002;7.788;2023-09-19T13:05:53;2.37;;;1.50;;
2001;SDS011;1003;48.002;7.788;2023-09-19T13:08:26;1.73;;;1.47;;
2001;SDS011;1003;48.002;7.788;2023-09-19T13:11:01;1.87;;;1.40;;
2001;SDS011;1003;48.002;7.788;2023-09-19T13:13:35;2.47;;;1.40;;
2001;SDS011;1003;48.002;7.788;2023-09-19T13:16:03;1.53;;;1.20;;
2001;SDS011;1003;48.002;7.788;2023-09-19T13:18:42;1.53;;;1.30;;
2001;SDS011;1003;48.002;7.788;2023-09-19T13:21:12;2.30;;;1.17;;
2001;SDS011;1003;48.002;7.788;2023-09-19T13:23:49;1.67;;;1.03;;
2001;SDS011;1003;48.002;7.788;2023-09-19T13:26:18;1.47;;;1.13;;
2001;SDS011;1003;48.002;7.788;2023-09-19T13:28:45;1.17;;;1.03;;
2001;SDS011;1003;48.002;7.788;2023-09-19T13:31:14;1.30;;;1.03;;
2001;SDS011;1003;48.002;7.788;2023-09-19T13:33:44;1.73;;;1.00;;
2001;SDS011;1003;48.002;7.788;2023-09-19T13:36:13;0.90;;;0.90;;
2001;SDS011;1003;48.002;7.788;2023-09-19T13:38:40;1.20;;;1.10;;
2001;SDS011;1003;48.002;7.788;2023-09-19T13:41:09;1.10;;;1.00;;
2001;SDS011;1003;48.002;7.788;2023-09-19T13:43:36;1.50;;;1.10;;
2001;SDS011;1003;48.002;7.788;2023-09-19T13:46:04;2.03;;;1.20;;
2001;SDS011;1003;48.002;7.788;2023-09-19T13:48:37;2.30;;;0.80;;
2001;SDS011;1003;48.002;7.788;2023-09-19T13:51:05;1.70;;;1.03;;
2001;SDS011;1003;48.002;7.788;2023-09-19T13:53:32;3.37;;;1.10;;
2001;SDS011;1003;48.002;7.788;2023-09-19T13:55:59;1.00;;;0.97;;
2001;SDS011;1003;48.002;7.788;2023-09-19T13:58:26;0.80;;;0.80;;
2001;SDS011;1003;48.002;7.788;2023-09-19T14:00:56;1.37;;;0.90;;
2001;SDS011;1003;48.002;7.788;2023-09-19T14:03:23;1.20;;;1.10;;
2001;SDS011;1003;48.002;7.788;2023-09-19T14:05:53;1.10;;;1.00;;
2001;SDS011;1003;48.002;7.788;2023-09-19T14:08:22;1.47;;;1.00;;
2001;SDS011;1003;48.002;7.788;2023-09-19T14:10:49;1.20;;;1.10;;
2001;SDS011;1003;48.002;7.788;2023-09-19T14:13:16;1.30;;;0.90;;
2001;SDS011;1003;48.002;7.788;2023-09-19T14:15:45;2.40;;;1.30;;
2001;SDS011;1003;48.002;7.788;2023-09-19T14:18:12;2.23;;;1.03;;
2001;SDS011;1003;48.002;7.788;2023-09-19T14:20:39;3.17;;;1.20;;
2001;SDS011;1003;48.002;7.788;2023-09-19T14:23:06;1.83;;;1.00;;
2001;SDS011;1003;48.002;7.788;2023-09-19T14:25:35;2.80;;;1.40;;
2001;SDS011;1003;48.002;7.788;2023-09-19T14:28:04;2.40;;;1.00;;
2001;SDS011;1003;48.002;7.788;2023-09-19T14:30:33;1.10;;;1.00;;
2001;SDS011;1003;48.002;7.788;2023-09-19T14:33:02;1.20;;;1.10;;
2001;SDS011;1003;48.002;7.788;2023-09-19T14:35:30;1.30;;;1.07;;
2001;SDS011;1003;48.002;7.788;2023-09-19T14:37:57;1.13;;;1.03;;
2001;SDS011;1003;48.002;7.788;2023-09-19T14:40:24;1.70;;;1.13;;
2001;SDS011;1003;48.002;7.788;2023-09-19T14:42:53;3.33;;;1.10;;
2001;SDS011;1003;48.002;7.788;2023-09-19T14:45:20;1.33;;;1.13;;
2001;SDS011;1003;48.002;7.788;2023-09-19T14:47:47;1.63;;;1.20;;
2001;SDS011;1003;48.002;7.788;2023-09-19T14:50:17;1.27;;;1.07;;
2001;SDS011;1003;48.002;7.788;2023-09-19T14:52:44;1.40;;;1.20;;
2001;SDS011;1003;48.002;7.788;2023-09-19T14:55:11;1.43;;;1.20;;
2001;SDS011;1003;48.002;7.788;2023-09-19T14:57:39;1.30;;;1.10;;
2001;SDS011;1003;48.002;7.788;2023-09-19T15:00:11;1.27;;;1.10;;
2001;SDS011;1003;48.002;7.788;2023-09-19T15:02:39;1.33;;;1.23;;
2001;SDS011;1003;48.002;7.788;2023-09-19T15:05:06;1.00;;;1.00;;
2001;SDS011;1003;48.002;7.788;2023-09-19T15:07:34;1.37;;;1.03;;
2001;SDS011;1003;48.002;7.788;2023-09-19T15:10:03;0.90;;;0.90;;
2001;SDS011;1003;48.002;7.788;2023-09-19T15:12:34;2.30;;;1.23;;
2001;SDS011;1003;48.002;7.788;2023-09-19T15:15:03;2.07;;;1.07;;
2001;SDS011;1003;48.002;7.788;2023-09-19T15:17:33;2.10;;;1.20;;
2001;SDS011;1003;48.002;7.788;2023-09-19T15:20:02;2.20;;;1.30;;
2001;SDS011;1003;48.002;7.788;2023-09-19T15:22:31;1.67;;;1.20;;
2001;SDS011;1003;48.002;7.788;2023-09-19T15:24:59;1.30;;;1.13;;
2001;SDS011;1003;48.002;7.788;2023-09-19T15:27:27;1.43;;;1.00;;
2001;SDS011;1003;48.002;7.788;2023-09-19T15:29:55;1.17;;;1.07;;
2001;SDS011;1003;48.002;7.788;2023-09-19T15:32:23;1.00;;;1.00;;
2001;SDS011;1003;48.002;7.788;2023-09-19T15:34:52;1.37;;;1.20;;
2001;SDS011;1003;48.002;7.788;2023-09-19T15:37:19;2.60;;;1.07;;
2001;SDS011;1003;48.002;7.788;2023-09-19T15:39:47;1.63;;;1.10;;
2001;SDS011;1003;48.002;7.788;2023-09-19T15:42:14;3.63;;;1.10;;
2001;SDS011;1003;48.002;7.788;2023-09-19T15:44:41;1.20;;;1.10;;
2001;SDS011;1003;48.002;7.788;2023-09-19T15:47:09;1.20;;;1.10;;
2001;SDS011;1003;48.002;7.788;2023-09-19T15:49:36;2.70;;;1.60;;